Flight Track Log - Related Links

Times and Time Zones

All times are in EDT time to prevent confusion due to time zone crossing. See the VLC140 flight status page for this flight to view local times or setup timezone preferences in your user account.

Time Position Orientation Groundspeed Altitude Reporting Facility
EDT Latitude Longitude Course Direction KTS MPH feet Rate Location/Type
Fri 11:28:47 AM 51.0667 -114.0500 187° South 190 219 5,500  Level Edmonton Center
Fri 11:29:47 AM 51.0000 -114.0500 180° South 250 288 9,100 3,650 Climbing Edmonton Center
Fri 11:30:47 AM 50.9167 -114.0500 180° South 290 334 12,800 3,700 Climbing Edmonton Center
Fri 11:31:47 AM 50.8333 -114.0667 187° South 300 345 16,500 3,600 Climbing Edmonton Center
Fri 11:32:47 AM 50.7500 -114.0667 180° South 310 357 20,000 3,550 Climbing Edmonton Center
Fri 11:33:00 AM 50.2587 -114.1828 185° South  Level Estimated
Fri 11:33:47 AM 50.6500 -114.0833 186° South 320 368 23,600  Level Edmonton Center
Fri 11:34:00 AM 51.0070 -114.0409 187° South  Level Estimated
Fri 11:34:47 AM 50.5500 -114.0833 180° South 340 391 26,100  Level Edmonton Center
Fri 11:35:47 AM 50.4500 -114.0833 180° South 360 414 28,300 2,100 Climbing Edmonton Center
Fri 11:36:47 AM 50.3500 -114.1000 186° South 380 437 30,300 2,000 Climbing Edmonton Center
Fri 11:37:47 AM 50.2500 -114.1000 180° South 380 437 32,300 1,950 Climbing Edmonton Center
Fri 11:38:47 AM 50.1500 -114.1000 180° South 380 437 34,200 1,650 Climbing Edmonton Center
Fri 11:39:47 AM 50.0500 -114.1333 192° South 380 437 35,600 1,250 Climbing Edmonton Center
Fri 11:40:47 AM 49.9167 -114.1333 180° South 380 437 36,700 1,050 Climbing Edmonton Center
Fri 11:41:47 AM 49.8167 -114.1500 186° South 380 437 37,700 950 Climbing Edmonton Center
Fri 11:42:47 AM 49.7167 -114.1500 180° South 380 437 38,600 800 Climbing Edmonton Center
Fri 11:43:47 AM 49.6000 -114.1500 180° South 380 437 39,300 600 Climbing Edmonton Center
Fri 11:44:47 AM 49.4833 -114.1333 175° South 400 460 39,800 450 Climbing Edmonton Center
Fri 11:45:47 AM 49.3833 -114.1167 174° South 410 472 40,200 500 Climbing Edmonton Center
Fri 11:46:47 AM 49.2667 -114.0833 169° South 420 483 40,800 400 Climbing Edmonton Center
Fri 11:47:47 AM 49.1500 -114.0667 175° South 420 483 41,000 100 Climbing Edmonton Center
Fri 11:48:47 AM 49.0333 -114.0333 169° South 430 495 41,000  Level Edmonton Center
Fri 11:49:47 AM 48.9000 -114.0167 175° South 440 506 41,000  Level Edmonton Center
Fri 11:50:47 AM 48.7833 -113.9667 164° South 440 506 41,000  Level Edmonton Center
Fri 11:51:47 AM 48.6500 -113.9333 171° South 450 518 41,000  Level Edmonton Center
Fri 11:52:47 AM 48.5333 -113.9167 175° South 460 529 41,000  Level Edmonton Center
Fri 11:53:47 AM 48.4000 -113.8833 171° South 450 518 41,000  Level Edmonton Center
Fri 11:54:47 AM 48.2833 -113.8667 175° South 450 518 41,000  Level Edmonton Center
Fri 11:55:47 AM 48.1667 -113.8667 180° South 440 506 41,000  Level Edmonton Center
Fri 11:56:47 AM 48.0500 -113.8167 164° South 450 518 41,000  Level Edmonton Center
Fri 11:57:47 AM 47.9167 -113.8000 175° South 440 506 41,000  Level Edmonton Center
Fri 11:58:17 AM 47.9017 -113.7694 126° Southeast 448 516 41,000  Level Salt Lake Center
Fri 11:59:19 AM 47.7789 -113.7433 172° South 447 514 41,000  Level Salt Lake Center
Fri 12:00:21 PM 47.6550 -113.7175 172° South 447 514 41,000  Level Salt Lake Center
Fri 12:01:23 PM 47.5306 -113.6919 172° South 448 516 41,000  Level Salt Lake Center
Fri 12:02:25 PM 47.4072 -113.6658 172° South 448 516 41,000  Level Salt Lake Center
Fri 12:03:27 PM 47.2597 -113.6369 172° South 447 514 41,000  Level Salt Lake Center
Fri 12:04:29 PM 47.1356 -113.6128 172° South 447 514 41,000  Level Salt Lake Center
Fri 12:05:31 PM 47.0114 -113.5881 172° South 452 520 41,000  Level Salt Lake Center
Fri 12:06:34 PM 46.8872 -113.5622 172° South 450 518 41,000  Level Salt Lake Center
Fri 12:07:36 PM 46.7619 -113.5378 172° South 454 522 41,000  Level Salt Lake Center
Fri 12:08:38 PM 46.6369 -113.5108 172° South 454 522 41,000  Level Salt Lake Center
Fri 12:09:40 PM 46.4864 -113.4794 172° South 454 522 41,000  Level Salt Lake Center
Fri 12:10:42 PM 46.3628 -113.4556 172° South 453 521 41,000  Level Salt Lake Center
Fri 12:11:44 PM 46.2375 -113.4317 172° South 453 521 41,000  Level Salt Lake Center
Fri 12:12:46 PM 46.1000 -113.4058 173° South 455 524 41,000  Level Salt Lake Center
Fri 12:13:48 PM 45.9697 -113.3814 173° South 462 532 41,000  Level Salt Lake Center
Fri 12:14:50 PM 45.8444 -113.3550 172° South 456 525 41,000  Level Salt Lake Center
Fri 12:15:52 PM 45.7069 -113.3286 172° South 455 524 41,000  Level Salt Lake Center
Fri 12:16:54 PM 45.5783 -113.3042 172° South 455 524 41,000  Level Salt Lake Center
Fri 12:17:57 PM 45.4500 -113.2781 172° South 458 527 41,000  Level Salt Lake Center
Fri 12:18:59 PM 45.3192 -113.2536 173° South 456 525 41,000  Level Salt Lake Center
Fri 12:20:01 PM 45.1981 -113.2308 172° South 457 526 41,000  Level Salt Lake Center
Fri 12:21:03 PM 45.0575 -113.2042 172° South 458 527 41,000  Level Salt Lake Center
Fri 12:22:05 PM 44.9381 -113.1817 172° South 456 525 41,000  Level Salt Lake Center
Fri 12:23:07 PM 44.7958 -113.1542 172° South 458 527 41,000  Level Salt Lake Center
Fri 12:24:09 PM 44.6747 -113.1319 173° South 458 527 41,000  Level Salt Lake Center
Fri 12:25:11 PM 44.5342 -113.1053 172° South 458 527 41,000  Level Salt Lake Center
Fri 12:26:13 PM 44.4122 -113.0828 172° South 459 528 41,000  Level Salt Lake Center
Fri 12:27:15 PM 44.2694 -113.0567 173° South 462 532 41,000  Level Salt Lake Center
Fri 12:28:17 PM 44.1494 -113.0336 172° South 461 531 41,000  Level Salt Lake Center
Fri 12:29:19 PM 44.0053 -113.0094 173° South 462 532 41,000  Level Salt Lake Center
Fri 12:30:21 PM 43.8817 -112.9858 172° South 467 537 41,000  Level Salt Lake Center
Fri 12:31:23 PM 43.7383 -112.9594 172° South 466 536 41,000  Level Salt Lake Center
Fri 12:32:25 PM 43.6172 -112.9375 173° South 465 535 41,000  Level Salt Lake Center
Fri 12:33:27 PM 43.4964 -112.9164 173° South 462 532 41,000  Level Salt Lake Center
Fri 12:34:29 PM 43.3536 -112.8900 172° South 463 533 41,000  Level Salt Lake Center
Fri 12:35:31 PM 43.2322 -112.8681 172° South 462 532 41,000  Level Salt Lake Center
Fri 12:36:33 PM 43.0919 -112.8453 173° South 460 529 41,000  Level Salt Lake Center
Fri 12:37:35 PM 42.9703 -112.8236 173° South 460 529 41,000  Level Salt Lake Center
Fri 12:38:37 PM 42.8294 -112.7992 173° South 459 528 41,000  Level Salt Lake Center
Fri 12:39:39 PM 42.7100 -112.7778 173° South 456 525 41,000  Level Salt Lake Center
Fri 12:40:41 PM 42.5789 -112.7553 173° South 457 526 41,000  Level Salt Lake Center
Fri 12:41:43 PM 42.4536 -112.7325 172° South 458 527 41,000  Level Salt Lake Center
Fri 12:42:45 PM 42.3278 -112.7119 173° South 457 526 41,000  Level Salt Lake Center
Fri 12:43:46 PM 42.1775 -112.6858 173° South 456 525 41,000  Level Salt Lake Center
Fri 12:44:48 PM 42.0533 -112.6647 173° South 454 522 41,000  Level Salt Lake Center
Fri 12:45:50 PM 41.9281 -112.6439 173° South 453 521 41,000  Level Salt Lake Center
Fri 12:46:52 PM 41.8031 -112.6228 173° South 453 521 41,000  Level Salt Lake Center
Fri 12:47:54 PM 41.6775 -112.6028 173° South 454 522 41,000  Level Salt Lake Center
Fri 12:48:56 PM 41.5525 -112.5806 172° South 454 522 41,000  Level Salt Lake Center
Fri 12:49:58 PM 41.4019 -112.5547 173° South 456 525 41,000  Level Salt Lake Center
Fri 12:51:00 PM 41.2775 -112.5350 173° South 454 522 41,000  Level Salt Lake Center
Fri 12:52:02 PM 41.1542 -112.5367 181° South 448 516 41,000  Level Salt Lake Center
Fri 12:53:04 PM 41.0322 -112.5417 182° South 445 512 41,000  Level Salt Lake Center
Fri 12:54:06 PM 40.9092 -112.5467 182° South 445 512 41,000  Level Salt Lake Center
Fri 12:55:07 PM 40.7608 -112.5511 181° South 446 513 41,000  Level Salt Lake Center
Fri 12:56:09 PM 40.6369 -112.5575 182° South 447 514 41,000  Level Salt Lake Center
Fri 12:57:11 PM 40.5136 -112.5625 182° South 447 514 41,000  Level Salt Lake Center
Fri 12:58:13 PM 40.3897 -112.5667 181° South 447 514 41,000  Level Salt Lake Center
Fri 12:59:15 PM 40.2667 -112.5731 182° South 445 512 41,000  Level Salt Lake Center
Fri 01:00:17 PM 40.1422 -112.5783 182° South 446 513 41,000  Level Salt Lake Center
Fri 01:01:19 PM 39.9931 -112.5842 182° South 447 514 41,000  Level Salt Lake Center
Fri 01:02:21 PM 39.8772 -112.6231 194° South 433 498 41,000  Level Salt Lake Center
Fri 01:03:23 PM 39.7592 -112.6683 196° South 430 495 41,000  Level Salt Lake Center
Fri 01:04:25 PM 39.6444 -112.7139 197° South 431 496 41,000  Level Salt Lake Center
Fri 01:05:27 PM 39.5311 -112.7594 197° South 428 493 41,000  Level Salt Lake Center
Fri 01:06:28 PM 39.4175 -112.8003 196° South 423 487 41,000  Level Salt Lake Center
Fri 01:07:30 PM 39.2808 -112.8544 197° South 426 490 41,000  Level Salt Lake Center
Fri 01:08:32 PM 39.1667 -112.9011 198° South 428 493 41,000  Level Salt Lake Center
Fri 01:09:34 PM 39.0531 -112.9444 197° South 427 491 41,000  Level Salt Lake Center
Fri 01:10:36 PM 38.9397 -112.9883 197° South 427 491 41,000  Level Salt Lake Center
Fri 01:11:38 PM 38.8258 -113.0322 197° South 427 491 41,000  Level Salt Lake Center
Fri 01:12:40 PM 38.7119 -113.0781 197° South 427 491 41,000  Level Salt Lake Center
Fri 01:13:41 PM 38.5969 -113.1203 196° South 428 493 41,000  Level Salt Lake Center
Fri 01:14:43 PM 38.4578 -113.1750 197° South 433 498 41,000  Level Salt Lake Center
Fri 01:15:45 PM 38.3428 -113.2183 196° South 433 498 41,000 -48 Level Salt Lake Center
Fri 01:16:47 PM 38.2272 -113.2628 197° South 433 498 40,900 -290 Descending Salt Lake Center
Fri 01:17:49 PM 38.1106 -113.3072 197° South 436 502 40,400 -439 Descending Salt Lake Center
Fri 01:18:50 PM 37.9953 -113.3506 197° South 436 502 40,000 -195 Descending Salt Lake Center
Fri 01:19:52 PM 37.8828 -113.3978 198° South 435 501 40,000  Level Salt Lake Center
Fri 01:20:54 PM 37.7594 -113.4806 208° Southwest 424 488 40,000  Level Salt Lake Center
Fri 01:21:56 PM 37.6561 -113.5489 208° Southwest 422 486 40,000  Level Salt Lake Center
Fri 01:22:48 PM 37.5744 -113.6047 208° Southwest 423 487 40,000  Level Los Angeles Center
Fri 01:23:50 PM 37.4700 -113.6728 207° Southwest 424 488 40,000  Level Los Angeles Center
Fri 01:24:52 PM 37.3431 -113.7511 206° Southwest 426 490 40,000  Level Los Angeles Center
Fri 01:25:54 PM 37.2403 -113.8164 207° Southwest 418 481 40,000  Level Los Angeles Center
Fri 01:26:56 PM 37.1364 -113.8792 206° Southwest 418 481 40,000  Level Los Angeles Center
Fri 01:27:59 PM 37.0350 -113.9406 206° Southwest 418 481 40,000  Level Los Angeles Center
Fri 01:29:02 PM 36.9308 -114.0050 206° Southwest 417 480 40,000  Level Los Angeles Center
Fri 01:30:03 PM 36.8042 -114.0800 205° Southwest 418 481 40,000  Level Los Angeles Center
Fri 01:31:05 PM 36.6983 -114.1442 206° Southwest 418 481 40,000  Level Los Angeles Center
Fri 01:32:07 PM 36.5936 -114.2075 206° Southwest 418 481 40,000  Level Los Angeles Center
Fri 01:33:09 PM 36.4881 -114.2694 205° Southwest 418 481 40,000  Level Los Angeles Center
Fri 01:34:12 PM 36.3833 -114.3336 206° Southwest 418 481 40,000 -96 Level Los Angeles Center
Fri 01:35:14 PM 36.2775 -114.3967 206° Southwest 418 481 39,800 -677 Descending Los Angeles Center
Fri 01:36:16 PM 36.1531 -114.4700 205° Southwest 415 478 38,600 -1,065 Descending Los Angeles Center
Fri 01:37:18 PM 36.0531 -114.5294 206° Southwest 401 461 37,600 -968 Descending Los Angeles Center
Fri 01:38:20 PM 35.9536 -114.5889 206° Southwest 395 455 36,600 -968 Descending Los Angeles Center
Fri 01:39:22 PM 35.8522 -114.6492 206° Southwest 400 460 35,600 -1,016 Descending Los Angeles Center
Fri 01:40:24 PM 35.7489 -114.7092 205° Southwest 403 464 34,500 -1,008 Descending Los Angeles Center
Fri 01:41:27 PM 35.6458 -114.7694 205° Southwest 406 467 33,500 -960 Descending Los Angeles Center
Fri 01:42:29 PM 35.5403 -114.8317 206° Southwest 415 478 32,500 -726 Descending Los Angeles Center
Fri 01:43:31 PM 35.4128 -114.9056 205° Southwest 418 481 32,000 -242 Descending Los Angeles Center
Fri 01:44:33 PM 35.3078 -114.9678 206° Southwest 418 481 32,000  Level Los Angeles Center
Fri 01:45:35 PM 35.2000 -115.0297 205° Southwest 422 486 32,000 -242 Level Los Angeles Center
Fri 01:46:37 PM 35.0936 -115.0911 205° Southwest 422 486 31,500 -726 Descending Los Angeles Center
Fri 01:47:39 PM 34.9878 -115.1514 205° Southwest 422 486 30,500 -968 Descending Los Angeles Center
Fri 01:48:41 PM 34.8825 -115.2111 205° Southwest 420 483 29,500 -1,065 Descending Los Angeles Center
Fri 01:49:43 PM 34.7539 -115.2853 205° Southwest 421 484 28,300 -1,056 Descending Los Angeles Center
Fri 01:50:46 PM 34.6475 -115.3453 205° Southwest 423 487 27,300 -960 Descending Los Angeles Center
Fri 01:51:48 PM 34.5394 -115.4053 205° Southwest 425 489 26,300 -968 Descending Los Angeles Center
Fri 01:52:50 PM 34.4211 -115.4367 192° South 432 497 25,300 -1,452 Descending Los Angeles Center
Fri 01:53:52 PM 34.3072 -115.4692 193° South 426 490 23,300 -1,935 Descending Los Angeles Center
Fri 01:54:54 PM 34.1983 -115.5017 194° South 407 468 21,300 -2,177 Descending Los Angeles Center
Fri 01:55:56 PM 34.0717 -115.5389 194° South 392 451 18,800 -2,177 Descending Los Angeles Center
Fri 01:56:58 PM 33.9686 -115.5722 195° South 386 444 16,800 -1,839 Descending Los Angeles Center
Fri 01:58:00 PM 33.8811 -115.6264 207° Southwest 370 426 15,000 -1,548 Descending Los Angeles Center
Fri 01:59:02 PM 33.8775 -115.7342 268° West 339 390 13,600 -1,344 Descending Los Angeles Center
Fri 02:00:05 PM 33.8914 -115.8411 279° West 334 384 12,200 -1,248 Descending Los Angeles Center
Fri 02:01:07 PM 33.9014 -115.9450 277° West 320 368 11,000 -1,258 Descending Los Angeles Center
Fri 02:02:09 PM 33.8539 -116.0439 240° Southwest 303 349 9,600 -1,403 Descending Los Angeles Center
Fri 02:03:11 PM 33.8103 -116.1128 233° Southwest 278 320 8,100 -1,403 Descending Los Angeles Center
Fri 02:04:13 PM 33.7706 -116.1822 235° Southwest 263 303 6,700 -1,016 Descending Los Angeles Center
Fri 02:05:15 PM 33.7353 -116.2450 236° Southwest 259 298 6,000 -1,237 Descending Los Angeles Center
Fri 02:07:27 PM 33.7500 -116.4000 277° West 207 238 2,700 -1,368 Descending Southern California TRACON
Fri 02:08:28 PM 33.7667 -116.4500 292° West 194 223 1,600 -942 Descending Southern California TRACON
Fri 02:09:28 PM 33.8000 -116.4833 320° Northwest 132 152 800 -800 Descending Southern California TRACON
Fri 02:11:00 PM 33.8167 -116.5000 291° West  Level FlightAware Approximate
Fri 02:18:00 PM 33.8297 -116.5067 337° Northwest  Level Estimated

Login

Don't have an account? Register now (free) for customized features, flight alerts, and more!